sensor_id;sensor_type;location;lat;lon;timestamp;pressure;altitude;pressure_sealevel;temperature;humidity
64192;BME280;50497;50.720;-2.084;2022-07-06T00:00:54;102843.69;;;15.12;100.00
64192;BME280;50497;50.720;-2.084;2022-07-06T00:03:20;102852.91;;;15.05;100.00
64192;BME280;50497;50.720;-2.084;2022-07-06T00:05:45;102844.56;;;15.13;100.00
64192;BME280;50497;50.720;-2.084;2022-07-06T00:08:10;102842.75;;;15.13;100.00
64192;BME280;50497;50.720;-2.084;2022-07-06T00:10:36;102844.56;;;15.13;100.00
64192;BME280;50497;50.720;-2.084;2022-07-06T00:13:01;102848.03;;;15.17;100.00
64192;BME280;50497;50.720;-2.084;2022-07-06T00:15:27;102849.19;;;15.09;100.00
64192;BME280;50497;50.720;-2.084;2022-07-06T00:17:52;102844.72;;;15.08;100.00
64192;BME280;50497;50.720;-2.084;2022-07-06T00:20:18;102848.56;;;15.01;100.00
64192;BME280;50497;50.720;-2.084;2022-07-06T00:22:43;102843.03;;;15.06;100.00
64192;BME280;50497;50.720;-2.084;2022-07-06T00:25:09;102841.53;;;14.95;100.00
64192;BME280;50497;50.720;-2.084;2022-07-06T00:27:34;102837.13;;;14.93;100.00
64192;BME280;50497;50.720;-2.084;2022-07-06T00:30:00;102842.44;;;14.96;100.00
64192;BME280;50497;50.720;-2.084;2022-07-06T00:32:25;102855.88;;;14.98;100.00
64192;BME280;50497;50.720;-2.084;2022-07-06T00:34:52;102834.88;;;14.79;100.00
64192;BME280;50497;50.720;-2.084;2022-07-06T00:37:18;102850.84;;;14.85;100.00
64192;BME280;50497;50.720;-2.084;2022-07-06T00:39:43;102845.72;;;14.77;100.00
64192;BME280;50497;50.720;-2.084;2022-07-06T00:42:09;102846.69;;;14.75;100.00
64192;BME280;50497;50.720;-2.084;2022-07-06T00:44:34;102853.81;;;14.77;100.00
64192;BME280;50497;50.720;-2.084;2022-07-06T00:47:00;102834.41;;;14.66;100.00
64192;BME280;50497;50.720;-2.084;2022-07-06T00:49:25;102847.97;;;14.63;100.00
64192;BME280;50497;50.720;-2.084;2022-07-06T00:52:10;102853.31;;;14.65;100.00
64192;BME280;50497;50.720;-2.084;2022-07-06T00:54:36;102853.50;;;14.57;100.00
64192;BME280;50497;50.720;-2.084;2022-07-06T00:57:04;102856.22;;;14.55;100.00
64192;BME280;50497;50.720;-2.084;2022-07-06T00:59:30;102845.63;;;14.49;100.00
64192;BME280;50497;50.720;-2.084;2022-07-06T01:01:55;102858.41;;;14.42;100.00
64192;BME280;50497;50.720;-2.084;2022-07-06T01:04:20;102854.91;;;14.39;100.00
64192;BME280;50497;50.720;-2.084;2022-07-06T01:06:46;102858.59;;;14.36;100.00
64192;BME280;50497;50.720;-2.084;2022-07-06T01:09:12;102857.78;;;14.34;100.00
64192;BME280;50497;50.720;-2.084;2022-07-06T01:11:39;102849.91;;;14.27;100.00
64192;BME280;50497;50.720;-2.084;2022-07-06T01:14:04;102852.59;;;14.27;100.00
64192;BME280;50497;50.720;-2.084;2022-07-06T01:16:31;102853.50;;;14.26;100.00
64192;BME280;50497;50.720;-2.084;2022-07-06T01:18:56;102852.78;;;14.20;100.00
64192;BME280;50497;50.720;-2.084;2022-07-06T01:21:22;102859.94;;;14.21;100.00
64192;BME280;50497;50.720;-2.084;2022-07-06T01:23:48;102854.50;;;14.23;100.00
64192;BME280;50497;50.720;-2.084;2022-07-06T01:26:16;102851.81;;;14.23;100.00
64192;BME280;50497;50.720;-2.084;2022-07-06T01:28:44;102854.75;;;14.14;100.00
64192;BME280;50497;50.720;-2.084;2022-07-06T01:31:24;102840.59;;;14.07;100.00
64192;BME280;50497;50.720;-2.084;2022-07-06T01:33:51;102847.75;;;14.08;100.00
64192;BME280;50497;50.720;-2.084;2022-07-06T01:36:18;102843.41;;;14.02;100.00
64192;BME280;50497;50.720;-2.084;2022-07-06T01:38:48;102838.94;;;14.03;100.00
64192;BME280;50497;50.720;-2.084;2022-07-06T01:41:14;102830.91;;;14.01;100.00
64192;BME280;50497;50.720;-2.084;2022-07-06T01:43:40;102842.44;;;14.05;100.00
64192;BME280;50497;50.720;-2.084;2022-07-06T01:46:06;102838.06;;;14.01;100.00
64192;BME280;50497;50.720;-2.084;2022-07-06T01:48:32;102833.63;;;14.00;100.00
64192;BME280;50497;50.720;-2.084;2022-07-06T01:50:57;102837.28;;;13.97;100.00
64192;BME280;50497;50.720;-2.084;2022-07-06T01:53:23;102830.34;;;13.89;100.00
64192;BME280;50497;50.720;-2.084;2022-07-06T01:55:48;102825.22;;;13.79;100.00
64192;BME280;50497;50.720;-2.084;2022-07-06T01:58:14;102842.97;;;13.86;100.00
64192;BME280;50497;50.720;-2.084;2022-07-06T02:00:40;102847.69;;;13.78;100.00
64192;BME280;50497;50.720;-2.084;2022-07-06T02:03:05;102847.69;;;13.78;100.00
64192;BME280;50497;50.720;-2.084;2022-07-06T02:05:31;102848.75;;;13.71;100.00
64192;BME280;50497;50.720;-2.084;2022-07-06T02:07:56;102842.75;;;13.61;100.00
64192;BME280;50497;50.720;-2.084;2022-07-06T02:10:22;102835.63;;;13.59;100.00
64192;BME280;50497;50.720;-2.084;2022-07-06T02:12:47;102831.13;;;13.59;100.00
64192;BME280;50497;50.720;-2.084;2022-07-06T02:15:13;102835.72;;;13.56;100.00
64192;BME280;50497;50.720;-2.084;2022-07-06T02:17:38;102848.34;;;13.54;100.00
64192;BME280;50497;50.720;-2.084;2022-07-06T02:20:05;102849.00;;;13.62;100.00
64192;BME280;50497;50.720;-2.084;2022-07-06T02:22:30;102831.41;;;13.50;100.00
64192;BME280;50497;50.720;-2.084;2022-07-06T02:24:56;102845.78;;;13.47;100.00
64192;BME280;50497;50.720;-2.084;2022-07-06T02:27:21;102849.75;;;13.33;100.00
64192;BME280;50497;50.720;-2.084;2022-07-06T02:29:47;102837.41;;;13.24;100.00
64192;BME280;50497;50.720;-2.084;2022-07-06T02:32:12;102856.19;;;13.25;100.00
64192;BME280;50497;50.720;-2.084;2022-07-06T02:34:38;102857.13;;;13.23;100.00
64192;BME280;50497;50.720;-2.084;2022-07-06T02:37:03;102842.06;;;13.17;100.00
64192;BME280;50497;50.720;-2.084;2022-07-06T02:39:29;102865.19;;;13.23;100.00
64192;BME280;50497;50.720;-2.084;2022-07-06T02:41:54;102857.19;;;13.20;100.00
64192;BME280;50497;50.720;-2.084;2022-07-06T02:44:20;102858.84;;;13.27;100.00
64192;BME280;50497;50.720;-2.084;2022-07-06T02:46:46;102857.13;;;13.23;100.00
64192;BME280;50497;50.720;-2.084;2022-07-06T02:49:11;102861.53;;;13.27;100.00
64192;BME280;50497;50.720;-2.084;2022-07-06T02:51:36;102852.81;;;13.17;100.00
64192;BME280;50497;50.720;-2.084;2022-07-06T02:54:02;102862.56;;;13.20;100.00
64192;BME280;50497;50.720;-2.084;2022-07-06T02:56:28;102857.44;;;13.10;100.00
64192;BME280;50497;50.720;-2.084;2022-07-06T02:58:53;102864.47;;;13.16;100.00
64192;BME280;50497;50.720;-2.084;2022-07-06T03:01:19;102857.13;;;13.23;100.00
64192;BME280;50497;50.720;-2.084;2022-07-06T03:03:44;102864.50;;;13.15;100.00
64192;BME280;50497;50.720;-2.084;2022-07-06T03:06:11;102873.41;;;13.18;100.00
64192;BME280;50497;50.720;-2.084;2022-07-06T03:08:36;102875.28;;;13.13;100.00
64192;BME280;50497;50.720;-2.084;2022-07-06T03:11:02;102879.66;;;13.19;100.00
64192;BME280;50497;50.720;-2.084;2022-07-06T03:13:27;102861.09;;;13.06;100.00
64192;BME280;50497;50.720;-2.084;2022-07-06T03:15:54;102879.78;;;13.12;100.00
64192;BME280;50497;50.720;-2.084;2022-07-06T03:18:20;102872.00;;;13.02;100.00
64192;BME280;50497;50.720;-2.084;2022-07-06T03:20:45;102889.75;;;13.07;100.00
64192;BME280;50497;50.720;-2.084;2022-07-06T03:23:11;102871.97;;;13.03;100.00
64192;BME280;50497;50.720;-2.084;2022-07-06T03:25:36;102879.94;;;13.05;100.00
64192;BME280;50497;50.720;-2.084;2022-07-06T03:28:02;102872.94;;;12.99;100.00
64192;BME280;50497;50.720;-2.084;2022-07-06T03:30:27;102873.53;;;13.12;100.00
64192;BME280;50497;50.720;-2.084;2022-07-06T03:32:53;102865.75;;;13.00;100.00
64192;BME280;50497;50.720;-2.084;2022-07-06T03:35:18;102880.94;;;13.02;100.00
64192;BME280;50497;50.720;-2.084;2022-07-06T03:37:44;102881.91;;;12.98;100.00
64192;BME280;50497;50.720;-2.084;2022-07-06T03:40:10;102875.56;;;13.02;100.00
64192;BME280;50497;50.720;-2.084;2022-07-06T03:42:36;102871.16;;;12.98;100.00
64192;BME280;50497;50.720;-2.084;2022-07-06T03:45:03;102876.75;;;12.89;100.00
64192;BME280;50497;50.720;-2.084;2022-07-06T03:47:29;102873.19;;;12.88;100.00
64192;BME280;50497;50.720;-2.084;2022-07-06T03:49:55;102876.22;;;12.73;100.00
64192;BME280;50497;50.720;-2.084;2022-07-06T03:52:20;102878.03;;;12.72;100.00
64192;BME280;50497;50.720;-2.084;2022-07-06T03:54:46;102863.75;;;12.70;100.00
64192;BME280;50497;50.720;-2.084;2022-07-06T03:57:12;102866.28;;;12.76;100.00
64192;BME280;50497;50.720;-2.084;2022-07-06T03:59:41;102884.09;;;12.81;100.00
64192;BME280;50497;50.720;-2.084;2022-07-06T04:02:07;102881.47;;;12.78;100.00
64192;BME280;50497;50.720;-2.084;2022-07-06T04:04:33;102892.31;;;12.73;100.00
64192;BME280;50497;50.720;-2.084;2022-07-06T04:06:59;102895.91;;;12.73;100.00
64192;BME280;50497;50.720;-2.084;2022-07-06T04:09:25;102889.63;;;12.73;100.00
64192;BME280;50497;50.720;-2.084;2022-07-06T04:11:50;102882.59;;;12.69;100.00
64192;BME280;50497;50.720;-2.084;2022-07-06T04:14:15;102900.34;;;12.74;100.00
64192;BME280;50497;50.720;-2.084;2022-07-06T04:16:41;102896.03;;;12.67;100.00
64192;BME280;50497;50.720;-2.084;2022-07-06T04:19:07;102904.22;;;12.61;100.00
64192;BME280;50497;50.720;-2.084;2022-07-06T04:21:32;102894.34;;;12.62;100.00
64192;BME280;50497;50.720;-2.084;2022-07-06T04:23:57;102887.19;;;12.62;100.00
64192;BME280;50497;50.720;-2.084;2022-07-06T04:26:23;102884.47;;;12.65;100.00
64192;BME280;50497;50.720;-2.084;2022-07-06T04:28:48;102890.81;;;12.60;100.00
64192;BME280;50497;50.720;-2.084;2022-07-06T04:31:14;102870.50;;;12.48;100.00
64192;BME280;50497;50.720;-2.084;2022-07-06T04:33:41;102861.47;;;12.52;100.00
64192;BME280;50497;50.720;-2.084;2022-07-06T04:36:09;102863.09;;;12.59;100.00
64192;BME280;50497;50.720;-2.084;2022-07-06T04:38:35;102874.56;;;12.67;100.00
64192;BME280;50497;50.720;-2.084;2022-07-06T04:41:00;102870.28;;;12.59;100.00
64192;BME280;50497;50.720;-2.084;2022-07-06T04:43:26;102877.44;;;12.58;100.00
64192;BME280;50497;50.720;-2.084;2022-07-06T04:45:51;102879.22;;;12.59;100.00
64192;BME280;50497;50.720;-2.084;2022-07-06T04:48:17;102872.78;;;12.66;100.00
64192;BME280;50497;50.720;-2.084;2022-07-06T04:50:42;102867.41;;;12.66;100.00
64192;BME280;50497;50.720;-2.084;2022-07-06T04:53:08;102866.41;;;12.72;100.00
64192;BME280;50497;50.720;-2.084;2022-07-06T04:55:33;102868.22;;;12.70;100.00
64192;BME280;50497;50.720;-2.084;2022-07-06T04:57:59;102870.75;;;12.78;100.00
64192;BME280;50497;50.720;-2.084;2022-07-06T05:00:25;102880.44;;;12.83;100.00
64192;BME280;50497;50.720;-2.084;2022-07-06T05:02:50;102886.75;;;12.82;100.00
64192;BME280;50497;50.720;-2.084;2022-07-06T05:05:16;102893.78;;;12.88;100.00
64192;BME280;50497;50.720;-2.084;2022-07-06T05:07:41;102883.75;;;12.96;100.00
64192;BME280;50497;50.720;-2.084;2022-07-06T05:10:08;102894.41;;;13.01;100.00
64192;BME280;50497;50.720;-2.084;2022-07-06T05:12:34;102887.16;;;13.04;100.00
64192;BME280;50497;50.720;-2.084;2022-07-06T05:15:00;102896.69;;;13.18;100.00
64192;BME280;50497;50.720;-2.084;2022-07-06T05:17:26;102873.50;;;13.13;100.00
64192;BME280;50497;50.720;-2.084;2022-07-06T05:19:51;102867.31;;;13.10;100.00
64192;BME280;50497;50.720;-2.084;2022-07-06T05:22:17;102890.28;;;13.23;100.00
64192;BME280;50497;50.720;-2.084;2022-07-06T05:24:43;102876.88;;;13.22;100.00
64192;BME280;50497;50.720;-2.084;2022-07-06T05:27:09;102883.84;;;13.32;100.00
64192;BME280;50497;50.720;-2.084;2022-07-06T05:29:34;102882.03;;;13.31;100.00
64192;BME280;50497;50.720;-2.084;2022-07-06T05:32:00;102879.47;;;13.26;100.00
64192;BME280;50497;50.720;-2.084;2022-07-06T05:34:25;102885.59;;;13.33;100.00
64192;BME280;50497;50.720;-2.084;2022-07-06T05:36:51;102875.78;;;13.30;100.00
64192;BME280;50497;50.720;-2.084;2022-07-06T05:39:16;102880.34;;;13.27;100.00
64192;BME280;50497;50.720;-2.084;2022-07-06T05:41:46;102880.28;;;13.30;100.00
64192;BME280;50497;50.720;-2.084;2022-07-06T05:44:12;102879.41;;;13.28;100.00
64192;BME280;50497;50.720;-2.084;2022-07-06T05:46:38;102892.72;;;13.34;100.00
64192;BME280;50497;50.720;-2.084;2022-07-06T05:49:03;102883.75;;;13.35;100.00
64192;BME280;50497;50.720;-2.084;2022-07-06T05:51:47;102895.97;;;13.48;100.00
64192;BME280;50497;50.720;-2.084;2022-07-06T05:54:14;102897.66;;;13.53;100.00
64192;BME280;50497;50.720;-2.084;2022-07-06T05:56:41;102890.19;;;13.64;100.00
64192;BME280;50497;50.720;-2.084;2022-07-06T05:59:06;102900.78;;;13.72;100.00
64192;BME280;50497;50.720;-2.084;2022-07-06T06:01:32;102902.09;;;13.90;100.00
64192;BME280;50497;50.720;-2.084;2022-07-06T06:03:57;102895.41;;;14.04;100.00
64192;BME280;50497;50.720;-2.084;2022-07-06T06:06:26;102892.47;;;14.12;100.00
64192;BME280;50497;50.720;-2.084;2022-07-06T06:08:51;102888.97;;;14.41;100.00
64192;BME280;50497;50.720;-2.084;2022-07-06T06:11:17;102893.03;;;14.56;100.00
64192;BME280;50497;50.720;-2.084;2022-07-06T06:13:42;102903.63;;;14.92;100.00
64192;BME280;50497;50.720;-2.084;2022-07-06T06:16:09;102905.16;;;15.29;100.00
64192;BME280;50497;50.720;-2.084;2022-07-06T06:18:34;102893.34;;;15.87;100.00
64192;BME280;50497;50.720;-2.084;2022-07-06T06:21:00;102882.78;;;16.30;100.00
64192;BME280;50497;50.720;-2.084;2022-07-06T06:23:25;102887.91;;;16.85;100.00
64192;BME280;50497;50.720;-2.084;2022-07-06T06:25:52;102877.94;;;17.31;100.00
64192;BME280;50497;50.720;-2.084;2022-07-06T06:28:17;102881.31;;;17.79;100.00
64192;BME280;50497;50.720;-2.084;2022-07-06T06:30:43;102897.13;;;18.10;100.00
64192;BME280;50497;50.720;-2.084;2022-07-06T06:33:19;102902.56;;;18.69;100.00
64192;BME280;50497;50.720;-2.084;2022-07-06T06:35:48;102897.94;;;19.09;100.00
64192;BME280;50497;50.720;-2.084;2022-07-06T06:38:14;102898.47;;;19.17;100.00
64192;BME280;50497;50.720;-2.084;2022-07-06T06:40:40;102896.88;;;19.13;100.00
64192;BME280;50497;50.720;-2.084;2022-07-06T06:43:05;102906.88;;;19.11;100.00
64192;BME280;50497;50.720;-2.084;2022-07-06T06:45:31;102906.66;;;19.15;100.00
64192;BME280;50497;50.720;-2.084;2022-07-06T06:47:57;102892.44;;;19.29;100.00
64192;BME280;50497;50.720;-2.084;2022-07-06T06:50:22;102891.84;;;19.77;100.00
64192;BME280;50497;50.720;-2.084;2022-07-06T06:52:49;102890.09;;;19.93;100.00
64192;BME280;50497;50.720;-2.084;2022-07-06T06:55:15;102890.50;;;20.36;100.00
64192;BME280;50497;50.720;-2.084;2022-07-06T06:57:42;102890.00;;;20.61;100.00
64192;BME280;50497;50.720;-2.084;2022-07-06T07:00:08;102900.69;;;20.48;100.00
64192;BME280;50497;50.720;-2.084;2022-07-06T07:02:34;102901.13;;;20.74;100.00
64192;BME280;50497;50.720;-2.084;2022-07-06T07:04:59;102885.56;;;21.08;100.00
64192;BME280;50497;50.720;-2.084;2022-07-06T07:07:25;102880.09;;;21.40;100.00
64192;BME280;50497;50.720;-2.084;2022-07-06T07:09:51;102888.06;;;21.43;100.00
64192;BME280;50497;50.720;-2.084;2022-07-06T07:12:16;102885.44;;;21.41;100.00
64192;BME280;50497;50.720;-2.084;2022-07-06T07:14:42;102884.22;;;21.31;100.00
64192;BME280;50497;50.720;-2.084;2022-07-06T07:17:08;102878.03;;;20.81;100.00
64192;BME280;50497;50.720;-2.084;2022-07-06T07:19:33;102896.50;;;20.59;100.00
64192;BME280;50497;50.720;-2.084;2022-07-06T07:21:58;102886.13;;;20.67;100.00
64192;BME280;50497;50.720;-2.084;2022-07-06T07:24:24;102881.56;;;20.34;100.00
64192;BME280;50497;50.720;-2.084;2022-07-06T07:26:50;102882.72;;;20.62;100.00
64192;BME280;50497;50.720;-2.084;2022-07-06T07:29:15;102886.03;;;20.84;100.00
64192;BME280;50497;50.720;-2.084;2022-07-06T07:31:41;102876.63;;;21.68;100.00
64192;BME280;50497;50.720;-2.084;2022-07-06T07:34:06;102881.19;;;22.56;100.00
64192;BME280;50497;50.720;-2.084;2022-07-06T07:36:32;102886.97;;;22.93;100.00
64192;BME280;50497;50.720;-2.084;2022-07-06T07:38:57;102871.69;;;23.32;100.00
64192;BME280;50497;50.720;-2.084;2022-07-06T07:41:23;102883.50;;;23.45;100.00
64192;BME280;50497;50.720;-2.084;2022-07-06T07:43:48;102881.97;;;23.94;100.00
64192;BME280;50497;50.720;-2.084;2022-07-06T07:46:15;102874.09;;;23.36;100.00
64192;BME280;50497;50.720;-2.084;2022-07-06T07:48:41;102874.03;;;23.64;100.00
64192;BME280;50497;50.720;-2.084;2022-07-06T07:51:07;102885.56;;;23.82;100.00
64192;BME280;50497;50.720;-2.084;2022-07-06T07:53:32;102872.69;;;23.43;100.00
64192;BME280;50497;50.720;-2.084;2022-07-06T07:55:59;102852.16;;;23.11;100.00
64192;BME280;50497;50.720;-2.084;2022-07-06T07:58:24;102857.75;;;22.95;100.00
64192;BME280;50497;50.720;-2.084;2022-07-06T08:00:50;102857.66;;;23.23;100.00
64192;BME280;50497;50.720;-2.084;2022-07-06T08:03:15;102852.03;;;23.39;100.00
64192;BME280;50497;50.720;-2.084;2022-07-06T08:05:41;102864.63;;;23.55;100.00
64192;BME280;50497;50.720;-2.084;2022-07-06T08:08:07;102854.88;;;23.51;100.00
64192;BME280;50497;50.720;-2.084;2022-07-06T08:10:32;102867.88;;;23.87;100.00
64192;BME280;50497;50.720;-2.084;2022-07-06T08:12:58;102873.09;;;23.77;100.00
64192;BME280;50497;50.720;-2.084;2022-07-06T08:15:23;102854.38;;;23.71;100.00
64192;BME280;50497;50.720;-2.084;2022-07-06T08:17:50;102849.63;;;24.13;100.00
64192;BME280;50497;50.720;-2.084;2022-07-06T08:20:15;102844.97;;;24.65;100.00
64192;BME280;50497;50.720;-2.084;2022-07-06T08:22:41;102842.66;;;24.96;100.00
64192;BME280;50497;50.720;-2.084;2022-07-06T08:25:07;102823.66;;;25.06;100.00
64192;BME280;50497;50.720;-2.084;2022-07-06T08:27:34;102828.13;;;25.67;100.00
64192;BME280;50497;50.720;-2.084;2022-07-06T08:30:00;102816.69;;;25.73;100.00
64192;BME280;50497;50.720;-2.084;2022-07-06T08:32:26;102820.81;;;25.90;100.00
64192;BME280;50497;50.720;-2.084;2022-07-06T08:34:51;102837.09;;;26.04;100.00
64192;BME280;50497;50.720;-2.084;2022-07-06T08:37:19;102841.72;;;26.15;100.00
64192;BME280;50497;50.720;-2.084;2022-07-06T08:39:45;102836.72;;;26.20;100.00
64192;BME280;50497;50.720;-2.084;2022-07-06T08:42:11;102826.19;;;26.59;99.56
64192;BME280;50497;50.720;-2.084;2022-07-06T08:44:37;102819.47;;;26.75;94.31
64192;BME280;50497;50.720;-2.084;2022-07-06T08:47:05;102816.63;;;26.19;95.13
64192;BME280;50497;50.720;-2.084;2022-07-06T08:49:33;102806.31;;;26.12;96.39
64192;BME280;50497;50.720;-2.084;2022-07-06T08:52:01;102796.66;;;26.51;95.77
64192;BME280;50497;50.720;-2.084;2022-07-06T08:54:27;102805.13;;;26.60;94.27
64192;BME280;50497;50.720;-2.084;2022-07-06T08:56:54;102810.53;;;26.16;92.53
64192;BME280;50497;50.720;-2.084;2022-07-06T08:59:20;102794.56;;;26.32;91.83
64192;BME280;50497;50.720;-2.084;2022-07-06T09:01:46;102802.81;;;26.87;89.02
64192;BME280;50497;50.720;-2.084;2022-07-06T09:04:13;102806.28;;;27.54;86.49
64192;BME280;50497;50.720;-2.084;2022-07-06T09:06:42;102800.13;;;27.62;86.42
64192;BME280;50497;50.720;-2.084;2022-07-06T09:09:09;102783.72;;;27.18;85.15
64192;BME280;50497;50.720;-2.084;2022-07-06T09:11:35;102798.66;;;27.58;85.54
64192;BME280;50497;50.720;-2.084;2022-07-06T09:14:03;102792.03;;;27.91;82.60
64192;BME280;50497;50.720;-2.084;2022-07-06T09:16:30;102794.19;;;28.18;80.60
64192;BME280;50497;50.720;-2.084;2022-07-06T09:18:56;102792.66;;;27.74;84.04
64192;BME280;50497;50.720;-2.084;2022-07-06T09:21:26;102788.31;;;28.33;83.81
64192;BME280;50497;50.720;-2.084;2022-07-06T09:23:59;102785.34;;;28.15;82.32
64192;BME280;50497;50.720;-2.084;2022-07-06T09:26:26;102780.75;;;28.25;81.75
64192;BME280;50497;50.720;-2.084;2022-07-06T09:28:51;102777.97;;;28.15;79.45
64192;BME280;50497;50.720;-2.084;2022-07-06T09:31:19;102780.63;;;28.27;84.98
64192;BME280;50497;50.720;-2.084;2022-07-06T09:36:40;102787.00;;;27.44;82.27
64192;BME280;50497;50.720;-2.084;2022-07-06T09:39:22;102792.69;;;27.20;84.08
64192;BME280;50497;50.720;-2.084;2022-07-06T09:41:50;102786.31;;;26.32;87.22
64192;BME280;50497;50.720;-2.084;2022-07-06T09:44:26;102790.16;;;26.64;93.16
64192;BME280;50497;50.720;-2.084;2022-07-06T09:46:55;102800.19;;;27.30;87.71
64192;BME280;50497;50.720;-2.084;2022-07-06T09:49:24;102791.47;;;26.81;86.19
64192;BME280;50497;50.720;-2.084;2022-07-06T09:52:11;102798.75;;;26.48;94.93
64192;BME280;50497;50.720;-2.084;2022-07-06T09:54:37;102785.09;;;26.03;92.39
64192;BME280;50497;50.720;-2.084;2022-07-06T09:57:05;102804.91;;;25.48;100.00
64192;BME280;50497;50.720;-2.084;2022-07-06T09:59:32;102798.81;;;25.44;98.77
64192;BME280;50497;50.720;-2.084;2022-07-06T10:02:03;102808.22;;;25.05;100.00
64192;BME280;50497;50.720;-2.084;2022-07-06T10:04:30;102805.91;;;24.87;100.00
64192;BME280;50497;50.720;-2.084;2022-07-06T10:06:56;102803.50;;;24.83;100.00
64192;BME280;50497;50.720;-2.084;2022-07-06T10:09:25;102815.56;;;24.80;99.75
64192;BME280;50497;50.720;-2.084;2022-07-06T10:11:51;102818.03;;;24.96;100.00
64192;BME280;50497;50.720;-2.084;2022-07-06T10:14:20;102815.16;;;25.57;100.00
64192;BME280;50497;50.720;-2.084;2022-07-06T10:16:46;102806.25;;;25.89;99.21
64192;BME280;50497;50.720;-2.084;2022-07-06T10:19:13;102799.75;;;26.69;93.02
64192;BME280;50497;50.720;-2.084;2022-07-06T10:21:40;102804.13;;;27.04;89.55
64192;BME280;50497;50.720;-2.084;2022-07-06T10:24:06;102791.84;;;27.20;85.98
64192;BME280;50497;50.720;-2.084;2022-07-06T10:26:33;102808.63;;;26.50;86.33
64192;BME280;50497;50.720;-2.084;2022-07-06T10:29:00;102817.69;;;25.83;92.00
64192;BME280;50497;50.720;-2.084;2022-07-06T10:31:27;102820.28;;;25.62;96.78
64192;BME280;50497;50.720;-2.084;2022-07-06T10:33:55;102809.41;;;25.14;100.00
64192;BME280;50497;50.720;-2.084;2022-07-06T10:36:22;102815.09;;;24.86;100.00
64192;BME280;50497;50.720;-2.084;2022-07-06T10:38:49;102801.03;;;24.67;100.00
64192;BME280;50497;50.720;-2.084;2022-07-06T10:41:16;102805.13;;;24.48;100.00
64192;BME280;50497;50.720;-2.084;2022-07-06T10:43:44;102824.75;;;24.42;100.00
64192;BME280;50497;50.720;-2.084;2022-07-06T10:46:13;102796.34;;;24.19;100.00
64192;BME280;50497;50.720;-2.084;2022-07-06T10:48:42;102809.66;;;24.37;100.00
64192;BME280;50497;50.720;-2.084;2022-07-06T10:51:10;102784.03;;;24.50;100.00
64192;BME280;50497;50.720;-2.084;2022-07-06T10:53:38;102792.69;;;24.44;100.00
64192;BME280;50497;50.720;-2.084;2022-07-06T10:56:07;102793.13;;;24.75;100.00
64192;BME280;50497;50.720;-2.084;2022-07-06T10:58:47;102788.97;;;25.53;99.53
64192;BME280;50497;50.720;-2.084;2022-07-06T11:01:13;102790.00;;;25.52;99.97
64192;BME280;50497;50.720;-2.084;2022-07-06T11:03:44;102776.53;;;25.14;94.83
64192;BME280;50497;50.720;-2.084;2022-07-06T11:06:18;102782.25;;;25.11;99.33
64192;BME280;50497;50.720;-2.084;2022-07-06T11:13:56;102788.38;;;23.90;100.00
64192;BME280;50497;50.720;-2.084;2022-07-06T11:16:26;102790.00;;;23.54;100.00
64192;BME280;50497;50.720;-2.084;2022-07-06T11:19:04;102800.34;;;23.36;100.00
64192;BME280;50497;50.720;-2.084;2022-07-06T11:24:04;102790.97;;;22.86;100.00
64192;BME280;50497;50.720;-2.084;2022-07-06T11:26:31;102790.66;;;22.78;100.00
64192;BME280;50497;50.720;-2.084;2022-07-06T11:28:59;102805.56;;;22.58;100.00
64192;BME280;50497;50.720;-2.084;2022-07-06T11:31:25;102797.88;;;22.64;100.00
64192;BME280;50497;50.720;-2.084;2022-07-06T11:33:51;102783.88;;;22.83;100.00
64192;BME280;50497;50.720;-2.084;2022-07-06T11:36:21;102793.22;;;23.34;100.00
64192;BME280;50497;50.720;-2.084;2022-07-06T11:38:50;102765.75;;;23.63;100.00
64192;BME280;50497;50.720;-2.084;2022-07-06T11:41:17;102775.97;;;24.23;100.00
64192;BME280;50497;50.720;-2.084;2022-07-06T11:43:44;102777.81;;;24.35;100.00
64192;BME280;50497;50.720;-2.084;2022-07-06T11:46:30;102768.34;;;24.52;100.00
64192;BME280;50497;50.720;-2.084;2022-07-06T11:49:03;102769.00;;;24.80;100.00
64192;BME280;50497;50.720;-2.084;2022-07-06T11:51:30;102753.53;;;24.92;100.00
64192;BME280;50497;50.720;-2.084;2022-07-06T11:53:58;102748.31;;;26.05;98.20
64192;BME280;50497;50.720;-2.084;2022-07-06T11:56:25;102743.84;;;26.59;91.80
64192;BME280;50497;50.720;-2.084;2022-07-06T11:58:54;102744.03;;;26.35;96.73
64192;BME280;50497;50.720;-2.084;2022-07-06T12:01:21;102738.44;;;26.25;94.70
64192;BME280;50497;50.720;-2.084;2022-07-06T12:03:47;102753.63;;;25.50;99.85
64192;BME280;50497;50.720;-2.084;2022-07-06T12:06:16;102759.13;;;25.26;99.98
64192;BME280;50497;50.720;-2.084;2022-07-06T12:08:50;102762.44;;;24.83;100.00
64192;BME280;50497;50.720;-2.084;2022-07-06T12:11:29;102751.88;;;25.49;100.00
64192;BME280;50497;50.720;-2.084;2022-07-06T12:14:00;102749.00;;;25.51;100.00
64192;BME280;50497;50.720;-2.084;2022-07-06T12:16:35;102749.25;;;25.23;100.00
64192;BME280;50497;50.720;-2.084;2022-07-06T12:19:03;102748.75;;;25.18;100.00
64192;BME280;50497;50.720;-2.084;2022-07-06T12:21:29;102752.47;;;24.82;100.00
64192;BME280;50497;50.720;-2.084;2022-07-06T12:23:56;102749.75;;;24.82;100.00
64192;BME280;50497;50.720;-2.084;2022-07-06T12:26:24;102733.13;;;25.32;97.12
64192;BME280;50497;50.720;-2.084;2022-07-06T12:29:11;102731.88;;;26.71;89.42
64192;BME280;50497;50.720;-2.084;2022-07-06T12:31:42;102737.84;;;26.98;86.47
64192;BME280;50497;50.720;-2.084;2022-07-06T12:34:16;102740.16;;;27.56;81.60
64192;BME280;50497;50.720;-2.084;2022-07-06T12:39:13;102736.81;;;25.77;83.77
64192;BME280;50497;50.720;-2.084;2022-07-06T12:41:50;102748.88;;;25.52;89.46
64192;BME280;50497;50.720;-2.084;2022-07-06T12:44:18;102737.94;;;25.75;88.08